createdAt,value
2022-12-15T00:06:13.138Z,20.81
2022-12-15T00:08:58.859Z,20.81
2022-12-15T00:11:45.410Z,20.80
2022-12-15T00:14:30.459Z,20.80
2022-12-15T00:17:34.573Z,20.78
2022-12-15T00:20:19.592Z,20.79
2022-12-15T00:23:04.919Z,20.79
2022-12-15T00:25:50.003Z,20.78
2022-12-15T00:28:36.288Z,20.78
2022-12-15T00:31:21.280Z,20.78
2022-12-15T00:34:06.536Z,20.77
2022-12-15T00:36:51.538Z,20.77
2022-12-15T00:39:19.139Z,20.78
2022-12-15T00:41:46.786Z,20.78
2022-12-15T00:44:20.372Z,20.77
2022-12-15T00:47:05.665Z,20.78
2022-12-15T00:49:50.912Z,20.79
2022-12-15T00:52:36.594Z,20.80
2022-12-15T00:55:21.482Z,20.80
2022-12-15T00:58:06.568Z,20.81
2022-12-15T01:00:53.132Z,20.80
2022-12-15T01:03:38.883Z,20.80
2022-12-15T01:06:25.038Z,20.79
2022-12-15T01:09:09.999Z,20.79
2022-12-15T01:11:55.233Z,20.79
2022-12-15T01:14:40.097Z,20.77
2022-12-15T01:20:42.067Z,20.78
2022-12-15T01:23:09.725Z,20.76
2022-12-15T01:25:37.332Z,20.76
2022-12-15T01:28:05.258Z,20.75
2022-12-15T01:30:32.921Z,20.76
2022-12-15T01:33:00.590Z,20.75
2022-12-15T01:35:28.754Z,20.74
2022-12-15T01:37:57.729Z,20.75
2022-12-15T01:40:42.917Z,20.75
2022-12-15T01:43:11.788Z,20.75
2022-12-15T01:45:49.534Z,20.75
2022-12-15T01:48:39.278Z,20.75
2022-12-15T01:51:11.635Z,20.74
2022-12-15T01:53:44.348Z,20.75
2022-12-15T01:56:12.253Z,20.77
2022-12-15T01:58:39.902Z,20.75
2022-12-15T02:01:07.624Z,20.78
2022-12-15T02:03:35.901Z,20.78
2022-12-15T02:06:03.752Z,20.78
2022-12-15T02:08:31.398Z,20.79
2022-12-15T02:11:03.981Z,20.77
2022-12-15T02:13:33.144Z,20.78
2022-12-15T02:16:03.239Z,20.76
2022-12-15T02:18:33.427Z,20.76
2022-12-15T02:21:01.369Z,20.75
2022-12-15T02:23:47.041Z,20.74
2022-12-15T02:26:28.066Z,20.74
2022-12-15T02:28:57.776Z,20.73
2022-12-15T02:31:46.500Z,20.73
2022-12-15T02:34:20.837Z,20.72
2022-12-15T02:36:48.741Z,20.73
2022-12-15T02:39:16.525Z,20.73
2022-12-15T02:41:44.843Z,20.72
2022-12-15T02:44:13.545Z,20.71
2022-12-15T02:46:51.966Z,20.71
2022-12-15T02:49:21.201Z,20.72
2022-12-15T02:51:49.745Z,20.70
2022-12-15T02:54:24.345Z,20.71
2022-12-15T02:56:54.016Z,20.70
2022-12-15T02:59:22.520Z,20.70
2022-12-15T03:01:52.995Z,20.70
2022-12-15T03:04:20.789Z,20.71
2022-12-15T03:07:00.423Z,20.70
2022-12-15T03:09:28.667Z,20.70
2022-12-15T03:11:56.340Z,20.69
2022-12-15T03:14:25.516Z,20.70
2022-12-15T03:16:54.665Z,20.69
2022-12-15T03:19:22.332Z,20.69
2022-12-15T03:21:49.990Z,20.69
2022-12-15T03:24:17.657Z,20.69
2022-12-15T03:26:48.610Z,20.68
2022-12-15T03:29:16.243Z,20.68
2022-12-15T03:31:44.379Z,20.67
2022-12-15T03:37:45.234Z,20.68
2022-12-15T03:40:14.281Z,20.68
2022-12-15T03:42:52.707Z,20.68
2022-12-15T03:45:21.352Z,20.68
2022-12-15T03:48:15.662Z,20.67
2022-12-15T03:50:44.564Z,20.68
2022-12-15T03:53:13.671Z,20.67
2022-12-15T03:55:41.313Z,20.67
2022-12-15T03:58:08.932Z,20.68
2022-12-15T04:00:36.712Z,20.68
2022-12-15T04:06:36.053Z,20.70
2022-12-15T04:09:05.151Z,20.71
2022-12-15T04:11:32.835Z,20.71
2022-12-15T04:14:00.508Z,20.72
2022-12-15T04:16:28.253Z,20.72
2022-12-15T04:19:09.736Z,20.72
2022-12-15T04:21:37.417Z,20.73
2022-12-15T04:24:24.700Z,20.72
2022-12-15T04:27:09.867Z,20.73
2022-12-15T04:29:54.733Z,20.73
2022-12-15T04:32:39.694Z,20.71
2022-12-15T04:35:25.225Z,20.70
2022-12-15T04:38:10.239Z,20.69
2022-12-15T04:40:56.866Z,20.69
2022-12-15T04:43:41.939Z,20.69
2022-12-15T04:46:27.253Z,20.68
2022-12-15T04:49:12.402Z,20.68
2022-12-15T04:51:57.279Z,20.68
2022-12-15T04:54:42.238Z,20.68
2022-12-15T04:57:28.697Z,20.68
2022-12-15T05:00:13.752Z,20.68
2022-12-15T05:02:58.694Z,20.66
2022-12-15T05:05:43.822Z,20.68
2022-12-15T05:08:28.976Z,20.66
2022-12-15T05:11:14.434Z,20.66
2022-12-15T05:14:01.050Z,20.65
2022-12-15T05:16:46.053Z,20.66
2022-12-15T05:23:03.636Z,20.69
2022-12-15T05:25:48.826Z,20.69
2022-12-15T05:28:33.706Z,20.69
2022-12-15T05:31:20.050Z,20.71
2022-12-15T05:34:26.205Z,20.71
2022-12-15T05:36:53.871Z,20.71
2022-12-15T05:39:21.545Z,20.71
2022-12-15T05:41:49.205Z,20.69
2022-12-15T05:44:17.411Z,20.69
2022-12-15T05:46:46.640Z,20.68
2022-12-15T05:49:33.406Z,20.68
2022-12-15T05:52:01.041Z,20.67
2022-12-15T05:54:28.721Z,20.68
2022-12-15T05:56:56.336Z,20.67
2022-12-15T05:59:24.029Z,20.67
2022-12-15T06:01:54.308Z,20.68
2022-12-15T06:04:40.284Z,20.68
2022-12-15T06:07:07.982Z,20.68
2022-12-15T06:09:35.655Z,20.69
2022-12-15T06:12:03.258Z,20.70
2022-12-15T06:14:31.662Z,20.70
2022-12-15T06:17:00.988Z,20.71
2022-12-15T06:19:28.692Z,20.72
2022-12-15T06:21:56.359Z,20.72
2022-12-15T06:24:24.761Z,20.74
2022-12-15T06:26:52.437Z,20.73
2022-12-15T06:29:20.091Z,20.75
2022-12-15T06:31:47.841Z,20.76
2022-12-15T06:37:48.868Z,20.79
2022-12-15T06:40:16.638Z,20.79
2022-12-15T06:42:44.264Z,20.81
2022-12-15T06:45:12.157Z,20.81
2022-12-15T06:47:39.820Z,20.81
2022-12-15T06:53:41.978Z,20.83
2022-12-15T06:56:10.058Z,20.82
2022-12-15T06:58:37.674Z,20.82
2022-12-15T07:01:06.087Z,20.82
2022-12-15T07:04:05.757Z,20.83
2022-12-15T07:06:36.460Z,20.83
2022-12-15T07:09:07.247Z,20.84
2022-12-15T07:11:35.331Z,20.84
2022-12-15T07:14:03.271Z,20.85
2022-12-15T07:16:31.354Z,20.84
2022-12-15T07:18:59.015Z,20.85
2022-12-15T07:21:26.672Z,20.88
2022-12-15T07:23:56.383Z,20.89
2022-12-15T07:26:26.108Z,20.91
2022-12-15T07:28:54.467Z,20.93
2022-12-15T07:31:22.504Z,20.94
2022-12-15T07:37:12.299Z,21.00
2022-12-15T07:39:39.928Z,21.02
2022-12-15T07:42:09.070Z,21.03
2022-12-15T07:44:36.716Z,21.05
2022-12-15T07:47:04.320Z,21.06
2022-12-15T07:49:32.014Z,21.09
2022-12-15T07:51:59.877Z,21.10
2022-12-15T07:54:27.496Z,21.11
2022-12-15T07:56:55.158Z,21.11
2022-12-15T07:59:24.175Z,21.12
2022-12-15T08:01:52.477Z,21.13
2022-12-15T08:04:20.552Z,21.14
2022-12-15T08:06:48.166Z,21.15
2022-12-15T08:09:15.839Z,21.16
2022-12-15T08:11:43.452Z,21.16
2022-12-15T08:14:16.921Z,21.18
2022-12-15T08:16:46.952Z,21.18
2022-12-15T08:19:15.413Z,21.19
2022-12-15T08:21:43.557Z,21.20
2022-12-15T08:24:11.229Z,21.22
2022-12-15T08:26:40.732Z,21.23
2022-12-15T08:29:48.735Z,21.24
2022-12-15T08:31:58.244Z,21.24
2022-12-15T08:37:47.746Z,21.28
2022-12-15T08:40:15.433Z,21.28
2022-12-15T08:42:43.133Z,21.28
2022-12-15T08:45:11.326Z,21.32
2022-12-15T08:47:40.595Z,21.33
2022-12-15T08:53:42.541Z,21.37
2022-12-15T08:56:12.366Z,21.39
2022-12-15T08:58:40.195Z,21.38
2022-12-15T09:01:08.294Z,21.41
2022-12-15T09:03:37.353Z,21.38
2022-12-15T09:09:43.777Z,21.39
2022-12-15T09:12:12.037Z,21.39
2022-12-15T09:14:39.650Z,21.38
2022-12-15T09:17:07.419Z,21.39
2022-12-15T09:23:00.309Z,21.37
2022-12-15T09:25:27.963Z,21.38
2022-12-15T09:27:55.677Z,21.39
2022-12-15T09:30:23.272Z,21.39
2022-12-15T09:32:50.889Z,21.39
2022-12-15T09:35:18.530Z,21.38
2022-12-15T09:37:51.615Z,21.39
2022-12-15T09:40:21.052Z,21.40
2022-12-15T09:42:59.875Z,21.41
2022-12-15T09:45:40.950Z,21.42
2022-12-15T09:48:10.894Z,21.45
2022-12-15T09:54:45.215Z,21.50
2022-12-15T09:57:16.017Z,21.51
2022-12-15T09:59:46.330Z,21.52
2022-12-15T10:02:21.263Z,21.52
2022-12-15T10:04:50.876Z,21.55
2022-12-15T10:07:19.609Z,21.56
2022-12-15T10:09:47.259Z,21.57
2022-12-15T10:12:18.963Z,21.60
2022-12-15T10:14:50.003Z,21.62
2022-12-15T10:17:19.995Z,21.65
2022-12-15T10:19:50.780Z,21.67
2022-12-15T10:22:20.462Z,21.68
2022-12-15T10:28:00.405Z,21.72
2022-12-15T10:30:31.753Z,21.77
2022-12-15T10:33:00.828Z,21.81
2022-12-15T10:35:29.826Z,21.84
2022-12-15T10:37:57.859Z,21.88
2022-12-15T10:40:40.403Z,21.91
2022-12-15T10:43:11.133Z,21.94
2022-12-15T10:45:40.290Z,21.97
2022-12-15T10:48:12.096Z,21.98
2022-12-15T10:50:39.735Z,22.01
2022-12-15T10:53:08.594Z,22.04
2022-12-15T10:55:38.144Z,22.04
2022-12-15T10:58:06.786Z,22.06
2022-12-15T11:00:34.773Z,22.10
2022-12-15T11:03:04.432Z,22.12
2022-12-15T11:05:33.597Z,22.14
2022-12-15T11:08:14.675Z,22.19
2022-12-15T11:11:07.938Z,22.20
2022-12-15T11:13:36.295Z,22.22
2022-12-15T11:16:11.457Z,22.25
2022-12-15T11:18:42.709Z,22.24
2022-12-15T11:21:15.315Z,22.26
2022-12-15T11:23:48.725Z,22.27
2022-12-15T11:26:23.660Z,22.29
2022-12-15T11:28:52.005Z,22.29
2022-12-15T11:31:21.762Z,22.31
2022-12-15T11:33:53.544Z,22.32
2022-12-15T11:36:22.877Z,22.33
2022-12-15T11:38:51.356Z,22.34
2022-12-15T11:41:26.324Z,22.36
2022-12-15T11:44:00.959Z,22.36
2022-12-15T11:46:31.688Z,22.37
2022-12-15T11:49:06.157Z,22.37
2022-12-15T11:55:07.751Z,22.41
2022-12-15T11:57:46.270Z,22.41
2022-12-15T12:00:18.536Z,22.42
2022-12-15T12:03:04.400Z,22.43
2022-12-15T12:09:39.190Z,22.47
2022-12-15T12:12:14.074Z,22.47
2022-12-15T12:14:45.201Z,22.48
2022-12-15T12:17:20.792Z,22.48
2022-12-15T12:20:03.016Z,22.49
2022-12-15T12:22:35.619Z,22.49
2022-12-15T12:25:04.004Z,22.49
2022-12-15T12:27:35.342Z,22.48
2022-12-15T12:30:03.730Z,22.49
2022-12-15T12:32:35.037Z,22.49
2022-12-15T12:35:32.364Z,22.49
2022-12-15T12:37:52.365Z,22.49
2022-12-15T12:40:20.882Z,22.48
2022-12-15T12:42:52.665Z,22.49
2022-12-15T12:45:20.310Z,22.48
2022-12-15T12:47:50.358Z,22.49
2022-12-15T12:50:18.814Z,22.48
2022-12-15T12:52:48.798Z,22.49
2022-12-15T12:55:23.864Z,22.47
2022-12-15T12:57:53.502Z,22.47
2022-12-15T13:00:22.084Z,22.46
2022-12-15T13:02:57.847Z,22.46
2022-12-15T13:05:41.226Z,22.44
2022-12-15T13:08:49.191Z,22.42
2022-12-15T13:11:38.361Z,22.42
2022-12-15T13:14:18.376Z,22.44
2022-12-15T13:17:16.819Z,22.44
2022-12-15T13:23:27.647Z,22.41
2022-12-15T13:26:03.329Z,22.37
2022-12-15T13:28:42.823Z,22.37
2022-12-15T13:31:30.956Z,22.35
2022-12-15T13:34:13.772Z,22.35
2022-12-15T13:43:38.193Z,22.35
2022-12-15T13:46:11.023Z,22.34
2022-12-15T13:48:40.905Z,22.33
2022-12-15T13:51:28.830Z,22.30
2022-12-15T13:53:57.460Z,22.29
2022-12-15T13:56:30.249Z,22.26
2022-12-15T13:59:00.017Z,22.25
2022-12-15T14:01:32.218Z,22.24
2022-12-15T14:04:04.902Z,22.23
2022-12-15T14:07:10.611Z,22.23
2022-12-15T14:09:39.680Z,22.22
2022-12-15T14:12:08.648Z,22.21
2022-12-15T14:14:37.048Z,22.21
2022-12-15T14:17:05.171Z,22.19
2022-12-15T14:19:42.269Z,22.19
2022-12-15T14:25:56.871Z,22.15
2022-12-15T14:28:30.461Z,22.15
2022-12-15T14:30:58.601Z,22.13
2022-12-15T14:33:29.755Z,22.11
2022-12-15T14:35:58.994Z,22.10
2022-12-15T14:38:28.121Z,22.08
2022-12-15T14:40:56.561Z,22.08
2022-12-15T14:43:25.346Z,22.06
2022-12-15T14:45:54.801Z,22.04
2022-12-15T14:48:41.173Z,22.03
2022-12-15T14:51:11.516Z,22.02
2022-12-15T14:53:40.302Z,22.01
2022-12-15T14:59:18.892Z,21.98
2022-12-15T15:01:57.915Z,21.96
2022-12-15T15:03:14.541Z,22.00
2022-12-15T15:04:30.994Z,21.95
2022-12-15T15:10:24.215Z,21.93
2022-12-15T15:12:51.837Z,21.91
2022-12-15T15:15:20.611Z,21.91
2022-12-15T15:17:49.725Z,21.90
2022-12-15T15:20:22.152Z,21.88
2022-12-15T15:23:03.044Z,21.87
2022-12-15T15:25:40.093Z,21.87
2022-12-15T15:28:13.609Z,21.87
2022-12-15T15:30:43.089Z,21.86
2022-12-15T15:33:10.995Z,21.86
2022-12-15T15:47:00.343Z,21.82
2022-12-15T15:49:36.045Z,21.80
2022-12-15T15:52:23.719Z,21.79
2022-12-15T15:54:52.273Z,21.79
2022-12-15T15:57:19.922Z,21.77
2022-12-15T15:59:48.591Z,21.77
2022-12-15T16:02:16.520Z,21.74
2022-12-15T16:04:46.482Z,21.75
2022-12-15T16:07:32.238Z,21.73
2022-12-15T16:10:00.537Z,21.73
2022-12-15T16:12:29.137Z,21.72
2022-12-15T16:14:57.400Z,21.72
2022-12-15T16:17:25.513Z,21.71
2022-12-15T16:19:55.367Z,21.71
2022-12-15T16:22:41.223Z,21.70
2022-12-15T16:25:14.755Z,21.70
2022-12-15T16:27:42.767Z,21.70
2022-12-15T16:30:16.454Z,21.68
2022-12-15T16:32:44.072Z,21.68
2022-12-15T16:35:14.756Z,21.69
2022-12-15T16:41:43.170Z,21.68
2022-12-15T16:44:10.964Z,21.68
2022-12-15T16:46:40.156Z,21.68
2022-12-15T16:49:07.933Z,21.68
2022-12-15T16:51:40.205Z,21.67
2022-12-15T16:54:07.882Z,21.67
2022-12-15T16:56:36.216Z,21.65
2022-12-15T16:59:31.504Z,21.64
2022-12-15T17:01:52.508Z,21.63
2022-12-15T17:04:21.491Z,21.63
2022-12-15T17:06:51.276Z,21.63
2022-12-15T17:09:19.641Z,21.62
2022-12-15T17:11:47.880Z,21.61
2022-12-15T17:14:15.959Z,21.61
2022-12-15T17:16:44.693Z,21.61
2022-12-15T17:19:16.151Z,21.61
2022-12-15T17:29:11.214Z,21.58
2022-12-15T17:31:39.655Z,21.59
2022-12-15T17:34:11.806Z,21.58
2022-12-15T17:36:58.566Z,21.57
2022-12-15T17:39:26.284Z,21.56
2022-12-15T17:42:00.507Z,21.56
2022-12-15T17:44:33.460Z,21.56
2022-12-15T17:47:02.610Z,21.58
2022-12-15T17:49:35.435Z,21.57
2022-12-15T17:52:05.759Z,21.58
2022-12-15T17:54:33.450Z,21.58
2022-12-15T17:57:01.847Z,21.56
2022-12-15T17:59:32.266Z,21.59
2022-12-15T18:02:02.282Z,21.58
2022-12-15T18:04:30.021Z,21.58
2022-12-15T18:07:23.069Z,21.55
2022-12-15T18:09:50.843Z,21.55
2022-12-15T18:12:21.177Z,21.54
2022-12-15T18:14:50.249Z,21.53
2022-12-15T18:17:19.282Z,21.53
2022-12-15T18:19:46.997Z,21.52
2022-12-15T18:25:48.232Z,21.52
2022-12-15T18:28:18.814Z,21.51
2022-12-15T18:30:50.219Z,21.50
2022-12-15T18:33:18.082Z,21.50
2022-12-15T18:35:46.238Z,21.50
2022-12-15T18:38:41.889Z,21.50
2022-12-15T18:41:09.973Z,21.49
2022-12-15T18:43:37.649Z,21.48
2022-12-15T18:46:07.635Z,21.50
2022-12-15T18:48:35.651Z,21.49
2022-12-15T18:51:03.354Z,21.49
2022-12-15T18:53:44.680Z,21.49
2022-12-15T18:56:13.229Z,21.49
2022-12-15T18:58:40.938Z,21.49
2022-12-15T19:01:10.638Z,21.50
2022-12-15T19:03:41.219Z,21.50
2022-12-15T19:06:12.296Z,21.50
2022-12-15T19:08:40.714Z,21.50
2022-12-15T19:11:08.922Z,21.51
2022-12-15T19:13:38.156Z,21.51
2022-12-15T19:16:06.238Z,21.51
2022-12-15T19:19:05.046Z,21.51
2022-12-15T19:21:51.301Z,21.51
2022-12-15T19:24:19.536Z,21.51
2022-12-15T19:26:47.923Z,21.51
2022-12-15T19:29:20.084Z,21.49
2022-12-15T19:31:49.513Z,21.50
2022-12-15T19:34:18.581Z,21.50
2022-12-15T19:41:00.558Z,21.49
2022-12-15T19:43:29.666Z,21.50
2022-12-15T19:45:57.773Z,21.50
2022-12-15T19:48:26.395Z,21.50
2022-12-15T19:50:55.488Z,21.50
2022-12-15T19:53:27.377Z,21.50
2022-12-15T19:55:55.247Z,21.49
2022-12-15T19:58:27.935Z,21.50
2022-12-15T20:00:56.859Z,21.50
2022-12-15T20:03:25.434Z,21.50
2022-12-15T20:05:53.307Z,21.50
2022-12-15T20:11:55.390Z,21.51
2022-12-15T20:14:23.252Z,21.51
2022-12-15T20:16:51.478Z,21.52
2022-12-15T20:19:20.061Z,21.51
2022-12-15T20:21:47.715Z,21.52
2022-12-15T20:24:42.209Z,21.52
2022-12-15T20:27:13.513Z,21.50
2022-12-15T20:29:42.556Z,21.50
2022-12-15T20:32:15.353Z,21.51
2022-12-15T20:34:43.152Z,21.51
2022-12-15T20:41:20.698Z,21.48
2022-12-15T20:43:50.464Z,21.48
2022-12-15T20:46:18.986Z,21.48
2022-12-15T20:48:48.401Z,21.48
2022-12-15T20:51:17.309Z,21.46
2022-12-15T20:57:55.462Z,21.45
2022-12-15T21:00:24.498Z,21.46
2022-12-15T21:02:54.896Z,21.46
2022-12-15T21:05:23.595Z,21.45
2022-12-15T21:08:11.452Z,21.45
2022-12-15T21:10:39.115Z,21.44
2022-12-15T21:13:07.640Z,21.44
2022-12-15T21:15:37.884Z,21.44
2022-12-15T21:18:40.618Z,21.46
2022-12-15T21:20:58.879Z,21.46
2022-12-15T21:30:31.324Z,21.47
2022-12-15T21:33:00.441Z,21.46
2022-12-15T21:35:31.888Z,21.46
2022-12-15T21:45:05.470Z,21.43
2022-12-15T21:47:47.009Z,21.45
2022-12-15T21:50:17.036Z,21.43
2022-12-15T21:52:45.080Z,21.43
2022-12-15T21:55:17.462Z,21.42
2022-12-15T21:57:45.084Z,21.43
2022-12-15T22:00:14.727Z,21.42
2022-12-15T22:02:42.595Z,21.40
2022-12-15T22:05:13.680Z,21.39
2022-12-15T22:11:08.455Z,21.37
2022-12-15T22:13:36.076Z,21.36
2022-12-15T22:16:05.362Z,21.35
2022-12-15T22:18:33.540Z,21.35
2022-12-15T22:21:02.183Z,21.34
2022-12-15T22:27:04.427Z,21.34
2022-12-15T22:29:33.591Z,21.32
2022-12-15T22:32:01.237Z,21.30
2022-12-15T22:34:30.311Z,21.29
2022-12-15T22:36:57.958Z,21.29
2022-12-15T22:40:03.348Z,21.28
2022-12-15T22:42:32.402Z,21.27
2022-12-15T22:45:00.669Z,21.28
2022-12-15T22:47:28.417Z,21.27
2022-12-15T22:49:56.757Z,21.25
2022-12-15T22:52:24.338Z,21.25
2022-12-15T22:58:27.187Z,21.23
2022-12-15T23:00:57.250Z,21.24
2022-12-15T23:03:24.879Z,21.22
2022-12-15T23:05:53.187Z,21.22
2022-12-15T23:08:21.127Z,21.22
2022-12-15T23:11:06.608Z,21.20
2022-12-15T23:13:35.703Z,21.19
2022-12-15T23:16:21.749Z,21.21
2022-12-15T23:18:49.819Z,21.22
2022-12-15T23:21:19.437Z,21.23
2022-12-15T23:23:47.008Z,21.25
2022-12-15T23:26:15.038Z,21.24
2022-12-15T23:28:44.379Z,21.26
2022-12-15T23:31:12.610Z,21.25
2022-12-15T23:33:41.158Z,21.25
2022-12-15T23:36:08.778Z,21.25
2022-12-15T23:41:58.499Z,21.25
2022-12-15T23:44:27.581Z,21.24
2022-12-15T23:46:57.399Z,21.24
2022-12-15T23:49:25.112Z,21.23
2022-12-15T23:51:52.754Z,21.23
2022-12-15T23:54:22.702Z,21.21
2022-12-15T23:56:50.317Z,21.20
2022-12-15T23:59:19.513Z,21.19
